Time;durP1;ratioP1;P1;durP2;ratioP2;P2;SDS_P1;SDS_P2;PMS_P1;PMS_P2;Temp;Humidity;BMP_temperature;BMP_pressure;BME280_temperature;BME280_humidity;BME280_pressure;Samples;Min_cycle;Max_cycle;Signal;HPM_P1;HPM_P2
2022/08/15 00:01:00;;;;;;;4.33;3.87;;;25.30;75.40;;;;;;5035428;28;20398;-68
2022/08/15 00:03:31;;;;;;;5.53;3.97;;;25.30;75.80;;;;;;5035680;28;20230;-68
2022/08/15 00:06:01;;;;;;;4.40;4.00;;;25.10;77.10;;;;;;5035547;28;20393;-68
2022/08/15 00:08:30;;;;;;;4.13;3.63;;;25.00;78.30;;;;;;5035259;28;20825;-67
2022/08/15 00:10:58;;;;;;;3.93;3.63;;;24.80;78.30;;;;;;5034818;28;20433;-68
2022/08/15 00:13:28;;;;;;;4.20;3.80;;;24.60;79.30;;;;;;5037413;28;20517;-68
2022/08/15 00:15:55;;;;;;;4.70;4.17;;;24.70;79.90;;;;;;5035026;28;20847;-68
2022/08/15 00:18:24;;;;;;;4.30;4.00;;;24.80;80.30;;;;;;5035254;28;20409;-68
2022/08/15 00:20:50;;;;;;;4.23;3.43;;;24.80;81.00;;;;;;5033647;28;20437;-68
2022/08/15 00:23:17;;;;;;;4.67;4.27;;;24.70;82.80;;;;;;5034910;28;20945;-69
2022/08/15 00:25:48;;;;;;;4.67;4.27;;;24.60;83.40;;;;;;5034369;28;20535;-68
2022/08/15 00:28:14;;;;;;;4.67;4.27;;;24.50;84.30;;;;;;5034835;28;20406;-67
2022/08/15 00:30:43;;;;;;;4.53;4.23;;;24.50;84.60;;;;;;5033489;28;20441;-68
2022/08/15 00:33:09;;;;;;;6.53;4.10;;;24.40;85.10;;;;;;5034826;28;21037;-68
2022/08/15 00:35:39;;;;;;;5.90;4.10;;;24.30;86.30;;;;;;5034687;28;20425;-67
2022/08/15 00:38:31;;;;;;;5.37;4.20;;;24.20;85.70;;;;;;5034931;28;20387;-68
2022/08/15 00:43:52;;;;;;;6.23;5.13;;;24.50;86.00;;;;;;5034952;28;20390;-67
2022/08/15 00:46:19;;;;;;;5.53;3.90;;;24.40;85.70;;;;;;5034835;28;20421;-68
2022/08/15 00:48:46;;;;;;;4.63;4.23;;;24.50;87.00;;;;;;5034517;28;20402;-68
2022/08/15 00:51:14;;;;;;;5.00;4.47;;;24.60;86.40;;;;;;5034636;28;20406;-68
2022/08/15 00:53:44;;;;;;;4.23;3.83;;;24.60;86.90;;;;;;5034722;28;20496;-68
2022/08/15 00:56:12;;;;;;;4.87;4.47;;;24.70;86.30;;;;;;5033721;28;20410;-67
2022/08/15 00:58:39;;;;;;;4.37;4.00;;;24.70;86.20;;;;;;5034079;28;20405;-67
2022/08/15 01:01:07;;;;;;;3.80;3.50;;;24.70;87.70;;;;;;5034210;28;20425;-68
2022/08/15 01:03:38;;;;;;;4.40;4.00;;;24.60;89.10;;;;;;5034254;28;20821;-70
2022/08/15 01:06:05;;;;;;;4.07;3.77;;;24.50;89.50;;;;;;5034448;28;20386;-68
2022/08/15 01:08:34;;;;;;;5.07;4.63;;;24.60;89.60;;;;;;5034275;28;20445;-68
2022/08/15 01:11:04;;;;;;;4.43;4.03;;;24.60;89.50;;;;;;5032226;28;20437;-68
2022/08/15 01:13:32;;;;;;;4.70;4.40;;;24.40;90.30;;;;;;5032639;28;20504;-69
2022/08/15 01:15:57;;;;;;;4.90;4.50;;;24.20;90.70;;;;;;5033858;28;20448;-68
2022/08/15 01:18:23;;;;;;;4.53;4.13;;;24.00;91.20;;;;;;5034200;28;20398;-68
2022/08/15 01:20:51;;;;;;;4.23;3.93;;;23.90;91.90;;;;;;5032420;28;20336;-68
2022/08/15 01:23:33;;;;;;;5.20;4.60;;;23.80;92.50;;;;;;5033722;28;20163;-69
2022/08/15 01:26:03;;;;;;;4.63;4.23;;;23.90;92.70;;;;;;5033415;28;20406;-68
2022/08/15 01:28:37;;;;;;;5.23;4.73;;;23.90;92.80;;;;;;5033721;28;20480;-69
2022/08/15 01:31:12;;;;;;;5.43;4.50;;;24.00;93.20;;;;;;5033631;28;20389;-69
2022/08/15 01:33:46;;;;;;;4.73;4.30;;;24.00;92.80;;;;;;5034012;28;20425;-68
2022/08/15 01:36:13;;;;;;;4.47;4.00;;;24.20;92.60;;;;;;5034213;28;20394;-68
2022/08/15 01:38:47;;;;;;;5.57;4.47;;;24.20;92.40;;;;;;5033790;28;20409;-67
2022/08/15 01:41:59;;;;;;;4.30;3.90;;;24.20;92.80;;;;;;5033539;28;20465;-67
2022/08/15 01:44:28;;;;;;;5.20;4.70;;;24.00;93.00;;;;;;5034087;28;20465;-68
2022/08/15 01:47:10;;;;;;;5.07;4.67;;;24.10;93.20;;;;;;5034041;28;20521;-68
2022/08/15 01:49:42;;;;;;;4.90;4.53;;;24.20;93.30;;;;;;5033346;28;20921;-68
2022/08/15 01:52:08;;;;;;;4.57;4.17;;;24.10;93.60;;;;;;5033669;28;20390;-68
2022/08/15 01:54:39;;;;;;;4.40;4.10;;;24.30;93.40;;;;;;5033020;28;20531;-69
2022/08/15 01:57:05;;;;;;;5.50;4.13;;;24.30;93.40;;;;;;5032571;28;20477;-68
2022/08/15 01:59:32;;;;;;;5.40;4.27;;;24.50;93.30;;;;;;5033207;28;20488;-68
2022/08/15 02:02:00;;;;;;;8.93;4.47;;;24.40;93.70;;;;;;5033546;28;20402;-68
2022/08/15 02:04:32;;;;;;;4.63;4.20;;;24.20;94.30;;;;;;5033495;28;20756;-68
2022/08/15 02:07:03;;;;;;;6.80;4.00;;;24.00;95.30;;;;;;5035557;28;20472;-67
2022/08/15 02:09:29;;;;;;;7.43;4.67;;;24.10;95.60;;;;;;5033189;28;20450;-68
2022/08/15 02:11:57;;;;;;;5.57;4.90;;;23.90;96.20;;;;;;5032623;28;20410;-68
2022/08/15 02:14:22;;;;;;;4.77;4.37;;;24.00;96.40;;;;;;5033033;28;20488;-68
2022/08/15 02:16:48;;;;;;;6.73;4.60;;;24.10;96.40;;;;;;5033287;28;20410;-68
2022/08/15 02:19:16;;;;;;;4.50;4.10;;;24.10;96.60;;;;;;5033003;28;20183;-69
2022/08/15 02:21:45;;;;;;;5.70;4.37;;;24.20;96.90;;;;;;5033170;28;20455;-68
2022/08/15 02:24:19;;;;;;;4.70;4.30;;;24.30;96.80;;;;;;5032903;28;20406;-68
2022/08/15 02:26:45;;;;;;;7.40;4.87;;;24.20;97.00;;;;;;5032553;28;20398;-68
2022/08/15 02:29:11;;;;;;;4.60;4.20;;;24.20;97.30;;;;;;5032946;28;20429;-68
2022/08/15 02:31:39;;;;;;;4.10;3.60;;;24.00;97.60;;;;;;5032995;28;20160;-68
2022/08/15 02:34:05;;;;;;;4.47;4.07;;;24.00;97.90;;;;;;5032858;28;20433;-68
2022/08/15 02:36:34;;;;;;;4.70;4.30;;;24.20;97.80;;;;;;5031387;28;20410;-68
2022/08/15 02:39:03;;;;;;;8.40;4.80;;;24.40;97.50;;;;;;5032765;28;20772;-68
2022/08/15 02:41:38;;;;;;;5.23;4.83;;;24.50;97.20;;;;;;5032333;28;20402;-69
2022/08/15 02:44:05;;;;;;;4.50;4.10;;;24.50;97.30;;;;;;5031992;28;20417;-68
2022/08/15 02:46:31;;;;;;;4.00;3.60;;;24.30;97.60;;;;;;5032742;28;20410;-68
2022/08/15 02:48:58;;;;;;;5.43;4.30;;;24.30;97.90;;;;;;5032819;28;22313;-69
2022/08/15 02:51:26;;;;;;;4.77;4.33;;;24.20;97.80;;;;;;5032865;28;20394;-68
2022/08/15 02:53:54;;;;;;;4.10;3.77;;;24.20;98.20;;;;;;5032868;28;20476;-68
2022/08/15 02:56:23;;;;;;;4.90;3.93;;;24.30;98.00;;;;;;5031869;28;20513;-68
2022/08/15 02:58:49;;;;;;;5.30;4.40;;;24.40;98.00;;;;;;5032805;28;20406;-68
2022/08/15 03:01:16;;;;;;;4.63;4.03;;;24.40;98.10;;;;;;5032847;28;20929;-68
2022/08/15 03:03:46;;;;;;;4.40;4.00;;;24.30;98.40;;;;;;5032930;28;20410;-68
2022/08/15 03:06:14;;;;;;;4.00;3.60;;;24.20;98.90;;;;;;5033299;28;20775;-68
2022/08/15 03:08:40;;;;;;;4.23;3.63;;;24.00;99.30;;;;;;5036462;28;20404;-68
2022/08/15 03:11:08;;;;;;;5.23;4.10;;;23.80;99.90;;;;;;5035882;28;20484;-68
2022/08/15 03:13:35;;;;;;;4.67;4.27;;;23.80;99.90;;;;;;5036161;28;20536;-68
2022/08/15 03:16:01;;;;;;;5.80;3.83;;;23.70;99.90;;;;;;5036178;28;20406;-68
2022/08/15 03:18:30;;;;;;;5.47;3.90;;;23.80;99.90;;;;;;5036633;28;21001;-68
2022/08/15 03:20:57;;;;;;;4.30;3.90;;;24.00;99.90;;;;;;5035961;28;20426;-67
2022/08/15 03:23:27;;;;;;;5.23;3.87;;;23.90;99.90;;;;;;5036085;28;20410;-68
2022/08/15 03:25:56;;;;;;;3.93;3.63;;;23.70;99.90;;;;;;5035726;28;20405;-68
2022/08/15 03:28:25;;;;;;;4.97;3.50;;;23.80;99.90;;;;;;5036220;28;20817;-69
2022/08/15 03:30:51;;;;;;;5.03;3.27;;;23.70;99.90;;;;;;5035795;28;20481;-68
2022/08/15 03:33:17;;;;;;;3.77;3.47;;;23.50;99.90;;;;;;5036120;28;20453;-68
2022/08/15 03:35:46;;;;;;;5.40;3.80;;;23.40;99.90;;;;;;5036347;28;20436;-68
2022/08/15 03:38:12;;;;;;;4.13;3.83;;;23.40;99.90;;;;;;5035812;28;20410;-68
2022/08/15 03:40:39;;;;;;;5.23;4.00;;;23.50;99.90;;;;;;5035394;28;20451;-68
2022/08/15 03:43:19;;;;;;;4.20;3.80;;;23.50;99.90;;;;;;5035584;28;20402;-68
2022/08/15 03:45:51;;;;;;;5.30;3.97;;;23.30;99.90;;;;;;5035606;28;20394;-68
2022/08/15 03:48:22;;;;;;;3.63;3.33;;;23.30;99.90;;;;;;5035621;28;20391;-68
2022/08/15 03:50:51;;;;;;;4.17;3.80;;;23.40;99.90;;;;;;5035382;28;20503;-68
2022/08/15 03:53:17;;;;;;;3.50;3.20;;;23.30;99.90;;;;;;5035416;28;20453;-68
2022/08/15 03:55:43;;;;;;;4.27;3.63;;;23.30;99.90;;;;;;5034580;28;21419;-68
2022/08/15 03:58:09;;;;;;;3.90;3.47;;;23.20;99.90;;;;;;5035412;28;20167;-67
2022/08/15 04:00:47;;;;;;;8.03;4.03;;;23.40;99.90;;;;;;5033989;28;20784;-68
2022/08/15 04:03:22;;;;;;;4.60;3.97;;;23.50;99.90;;;;;;5037734;28;20410;-68
2022/08/15 04:05:53;;;;;;;3.63;3.43;;;23.00;99.90;;;;;;5035535;28;20408;-68
2022/08/15 04:08:22;;;;;;;4.63;3.40;;;23.20;99.90;;;;;;5035524;28;20397;-68
2022/08/15 04:10:50;;;;;;;4.33;3.83;;;23.40;99.90;;;;;;5034547;28;20429;-69
2022/08/15 04:13:23;;;;;;;5.43;4.50;;;23.40;99.90;;;;;;5035252;28;20446;-69
2022/08/15 04:15:53;;;;;;;5.00;4.60;;;23.40;99.90;;;;;;5035383;28;20382;-68
2022/08/15 04:18:20;;;;;;;3.73;3.23;;;23.20;99.90;;;;;;5034445;28;20399;-69
2022/08/15 04:20:46;;;;;;;5.20;3.13;;;23.30;99.90;;;;;;5035250;28;20442;-69
2022/08/15 04:23:11;;;;;;;3.57;2.90;;;23.40;99.90;;;;;;5035766;28;20887;-68
2022/08/15 04:25:40;;;;;;;3.00;2.80;;;23.30;99.90;;;;;;5034286;28;20416;-68
2022/08/15 04:28:07;;;;;;;3.40;3.17;;;22.80;99.90;;;;;;5034871;28;20179;-69
2022/08/15 04:30:37;;;;;;;3.20;2.90;;;22.80;99.90;;;;;;5034834;28;20422;-68
2022/08/15 04:33:21;;;;;;;5.03;3.20;;;23.00;99.90;;;;;;5034716;28;20942;-69
2022/08/15 04:35:54;;;;;;;2.87;2.67;;;22.90;99.90;;;;;;5034926;28;20390;-69
2022/08/15 04:38:20;;;;;;;4.27;3.10;;;23.00;99.90;;;;;;5034667;28;20423;-69
2022/08/15 04:40:47;;;;;;;5.00;3.93;;;22.90;99.90;;;;;;5034333;28;20426;-68
2022/08/15 04:43:14;;;;;;;4.03;3.13;;;22.90;99.90;;;;;;5034449;28;20414;-69
2022/08/15 04:45:40;;;;;;;3.60;2.93;;;22.90;99.90;;;;;;5035265;28;20449;-69
2022/08/15 04:48:07;;;;;;;3.23;2.93;;;23.00;99.90;;;;;;5034375;28;20436;-68
2022/08/15 04:50:36;;;;;;;2.97;2.77;;;23.10;99.90;;;;;;5034343;28;20456;-68
2022/08/15 04:53:04;;;;;;;6.57;3.17;;;23.00;99.90;;;;;;5034600;28;20529;-69
2022/08/15 04:55:30;;;;;;;3.40;3.10;;;22.80;99.90;;;;;;5034077;28;20484;-70
2022/08/15 04:57:57;;;;;;;3.50;3.20;;;22.90;99.90;;;;;;5033217;28;20461;-68
2022/08/15 05:00:27;;;;;;;3.77;3.37;;;22.80;99.90;;;;;;5034120;28;20588;-69
2022/08/15 05:03:03;;;;;;;4.27;3.53;;;22.80;99.90;;;;;;5034366;28;20746;-67
2022/08/15 05:05:32;;;;;;;3.70;3.40;;;22.50;99.90;;;;;;5033998;28;20410;-69
2022/08/15 05:07:58;;;;;;;4.77;3.77;;;22.40;99.90;;;;;;5034022;28;20399;-69
2022/08/15 05:10:24;;;;;;;3.60;3.30;;;22.10;99.90;;;;;;5033933;28;20448;-70
2022/08/15 05:12:49;;;;;;;3.50;3.20;;;22.10;99.90;;;;;;5033505;28;20487;-68
2022/08/15 05:15:18;;;;;;;3.93;3.50;;;22.20;99.90;;;;;;5033780;28;20168;-68
2022/08/15 05:17:45;;;;;;;3.83;3.20;;;22.20;99.90;;;;;;5032551;28;20266;-69
2022/08/15 05:20:12;;;;;;;3.87;3.30;;;22.30;99.90;;;;;;5034071;28;20418;-69
2022/08/15 05:23:01;;;;;;;3.27;3.00;;;22.40;99.90;;;;;;5033834;28;20409;-69
2022/08/15 05:25:27;;;;;;;3.80;2.83;;;22.60;99.90;;;;;;5034226;28;20887;-69
2022/08/15 05:27:53;;;;;;;3.57;2.87;;;22.50;99.90;;;;;;5033031;28;20922;-69
2022/08/15 05:30:20;;;;;;;4.10;3.07;;;22.70;99.90;;;;;;5033547;28;20418;-69
2022/08/15 05:32:46;;;;;;;4.50;3.17;;;22.50;99.90;;;;;;5033653;28;20210;-69
2022/08/15 05:35:12;;;;;;;4.03;3.17;;;22.50;99.90;;;;;;5033617;28;20398;-69
2022/08/15 05:37:38;;;;;;;2.90;2.70;;;22.60;99.90;;;;;;5033597;28;20417;-69
2022/08/15 05:40:08;;;;;;;4.70;2.77;;;22.70;99.90;;;;;;5033276;28;20183;-68
2022/08/15 05:42:45;;;;;;;7.03;3.30;;;22.60;99.90;;;;;;5032824;28;20167;-69
2022/08/15 05:45:37;;;;;;;5.70;3.43;;;22.70;99.90;;;;;;5033565;28;20386;-69
2022/08/15 05:48:14;;;;;;;2.73;2.50;;;22.90;99.90;;;;;;5033030;28;20891;-69
2022/08/15 05:50:50;;;;;;;5.40;2.43;;;22.70;99.90;;;;;;5024784;28;20457;-68
2022/08/15 05:54:07;;;;;;;3.00;2.70;;;22.50;99.90;;;;;;5024430;28;20834;-68
2022/08/15 05:56:48;;;;;;;3.33;3.00;;;22.60;99.90;;;;;;4980725;28;20430;-69
2022/08/15 05:59:17;;;;;;;3.77;3.13;;;22.50;99.90;;;;;;5023746;28;20436;-69
2022/08/15 06:01:47;;;;;;;3.30;2.87;;;22.40;99.90;;;;;;5023715;28;20943;-69
2022/08/15 06:04:20;;;;;;;4.43;2.97;;;22.50;99.90;;;;;;5024221;28;20493;-69
2022/08/15 06:06:47;;;;;;;3.60;2.90;;;22.40;99.90;;;;;;5023892;28;20414;-69
2022/08/15 06:09:22;;;;;;;2.70;2.50;;;22.50;99.90;;;;;;5023631;28;20488;-69
2022/08/15 06:11:53;;;;;;;2.83;2.50;;;22.40;99.90;;;;;;5023248;28;20934;-68
2022/08/15 06:14:30;;;;;;;2.53;2.33;;;22.50;99.90;;;;;;5023624;28;20453;-69
2022/08/15 06:17:04;;;;;;;5.50;2.83;;;22.60;99.90;;;;;;5021996;28;21017;-68
2022/08/15 06:19:37;;;;;;;5.40;2.73;;;22.60;99.90;;;;;;5023478;28;20429;-69
2022/08/15 06:22:27;;;;;;;3.77;3.27;;;22.50;99.90;;;;;;5023523;28;20401;-70
2022/08/15 06:25:25;;;;;;;2.93;2.40;;;22.60;99.90;;;;;;5023525;28;20892;-69
2022/08/15 06:28:02;;;;;;;2.93;2.70;;;22.70;99.90;;;;;;5022895;28;20410;-69
2022/08/15 06:30:44;;;;;;;3.40;3.03;;;22.70;99.90;;;;;;5023718;28;20483;-70
2022/08/15 06:33:33;;;;;;;3.50;3.20;;;22.60;99.90;;;;;;5023423;28;20536;-69
2022/08/15 06:35:59;;;;;;;3.80;3.17;;;22.70;99.90;;;;;;5023621;28;20406;-70
2022/08/15 06:39:01;;;;;;;2.60;2.40;;;22.70;99.90;;;;;;5023243;28;20476;-69
2022/08/15 06:41:30;;;;;;;6.03;2.90;;;22.80;99.90;;;;;;5010739;28;20209;-70
2022/08/15 06:43:57;;;;;;;4.57;2.90;;;22.90;99.90;;;;;;5027219;28;20409;-70
2022/08/15 06:46:27;;;;;;;5.37;2.87;;;22.90;99.90;;;;;;5027346;28;20505;-69
2022/08/15 06:48:54;;;;;;;3.43;2.80;;;22.90;99.90;;;;;;5027115;28;20984;-70
2022/08/15 06:51:21;;;;;;;4.30;3.43;;;22.90;99.90;;;;;;5027421;28;20743;-69
2022/08/15 06:53:54;;;;;;;3.10;2.80;;;23.00;99.90;;;;;;5027875;28;20808;-69
2022/08/15 06:56:38;;;;;;;3.93;2.90;;;22.60;99.90;;;;;;5025871;28;20414;-69
2022/08/15 06:59:13;;;;;;;4.30;2.90;;;22.60;99.90;;;;;;5027400;28;20437;-68
2022/08/15 07:02:00;;;;;;;4.20;2.60;;;22.60;99.90;;;;;;5044947;23;20906;-70
2022/08/15 07:05:07;;;;;;;3.67;3.37;;;22.70;99.90;;;;;;5028520;28;20436;-71
2022/08/15 07:08:14;;;;;;;4.13;2.80;;;22.80;99.90;;;;;;5037212;28;20862;-70
2022/08/15 07:10:58;;;;;;;2.90;2.33;;;22.90;99.90;;;;;;5028512;28;20410;-70
2022/08/15 07:13:34;;;;;;;3.50;2.70;;;22.80;99.90;;;;;;5035942;28;20528;-70
2022/08/15 07:16:16;;;;;;;3.03;2.50;;;22.90;99.90;;;;;;5036727;28;20436;-70
2022/08/15 07:18:46;;;;;;;3.13;2.30;;;23.00;99.90;;;;;;5036465;28;20409;-70
2022/08/15 07:21:16;;;;;;;3.43;2.73;;;22.90;99.90;;;;;;5036192;28;20390;-70
2022/08/15 07:24:01;;;;;;;3.37;2.97;;;23.00;99.90;;;;;;5036416;28;20416;-70
2022/08/15 07:26:37;;;;;;;2.50;2.30;;;23.30;99.90;;;;;;5033512;28;20935;-70
2022/08/15 07:29:09;;;;;;;4.07;2.67;;;23.20;99.90;;;;;;5016526;28;20391;-72
2022/08/15 07:31:36;;;;;;;3.63;2.60;;;23.20;99.90;;;;;;5015410;28;20430;-70
2022/08/15 07:34:25;;;;;;;3.00;2.30;;;23.20;99.90;;;;;;5017144;28;20849;-71
2022/08/15 07:36:56;;;;;;;5.13;2.63;;;23.40;99.90;;;;;;5016298;28;20862;-72
2022/08/15 07:39:29;;;;;;;2.40;2.20;;;23.60;99.90;;;;;;5016479;28;20569;-71
2022/08/15 07:41:55;;;;;;;2.70;2.27;;;23.70;99.90;;;;;;5015914;28;20469;-71
2022/08/15 07:44:31;;;;;;;2.93;2.37;;;23.90;99.90;;;;;;5016568;28;20457;-71
2022/08/15 07:47:04;;;;;;;2.47;2.27;;;24.00;99.90;;;;;;5016408;28;20478;-70
2022/08/15 07:49:36;;;;;;;4.07;2.47;;;24.40;99.90;;;;;;5016292;28;20387;-72
2022/08/15 07:52:17;;;;;;;2.10;1.90;;;24.40;99.90;;;;;;5016213;28;20426;-71
2022/08/15 07:54:52;;;;;;;5.40;2.73;;;24.10;99.90;;;;;;5015233;28;20480;-71
2022/08/15 07:57:22;;;;;;;2.50;2.30;;;24.30;99.90;;;;;;5013943;28;20849;-71
2022/08/15 08:00:14;;;;;;;2.73;2.00;;;24.40;99.90;;;;;;5015267;28;20410;-70
2022/08/15 08:02:51;;;;;;;5.07;2.43;;;24.40;99.90;;;;;;5014726;28;20453;-71
2022/08/15 08:05:17;;;;;;;2.37;2.13;;;24.60;99.90;;;;;;5015516;28;20384;-70
2022/08/15 08:07:48;;;;;;;2.30;2.10;;;24.60;99.90;;;;;;5015680;28;20492;-70
2022/08/15 08:10:17;;;;;;;2.60;2.40;;;24.50;99.90;;;;;;5015707;28;20376;-70
2022/08/15 08:12:55;;;;;;;2.20;2.00;;;24.60;99.90;;;;;;5014918;28;20458;-71
2022/08/15 08:15:34;;;;;;;3.00;2.30;;;24.50;99.90;;;;;;5015598;28;20395;-71
2022/08/15 08:18:12;;;;;;;3.80;2.20;;;24.50;99.90;;;;;;5015628;28;20407;-71
2022/08/15 08:20:49;;;;;;;2.30;2.10;;;24.40;99.90;;;;;;5016161;28;20406;-70
2022/08/15 08:23:22;;;;;;;2.40;2.20;;;24.30;99.90;;;;;;5015245;28;20431;-70
2022/08/15 08:26:12;;;;;;;2.67;2.20;;;24.20;99.90;;;;;;5015327;28;20541;-70
2022/08/15 08:29:19;;;;;;;2.40;2.20;;;24.40;99.90;;;;;;4995283;28;20403;-70
2022/08/15 08:32:17;;;;;;;3.20;2.40;;;24.50;99.90;;;;;;4996112;28;20438;-70
2022/08/15 08:34:56;;;;;;;1.97;1.87;;;24.50;99.80;;;;;;4995395;28;20471;-71
2022/08/15 08:37:48;;;;;;;1.93;1.83;;;24.70;98.80;;;;;;4996009;28;20384;-72
2022/08/15 08:43:43;;;;;;;2.07;1.97;;;24.90;98.10;;;;;;4995363;28;20387;-70
2022/08/15 08:46:39;;;;;;;2.43;2.03;;;24.70;98.20;;;;;;4995760;28;20479;-71
2022/08/15 08:49:16;;;;;;;5.23;2.23;;;24.60;98.90;;;;;;4995552;28;20479;-68
2022/08/15 08:52:12;;;;;;;1.50;1.40;;;24.80;98.20;;;;;;4995280;28;20428;-71
2022/08/15 08:55:09;;;;;;;1.80;1.70;;;25.00;97.50;;;;;;4995571;28;20443;-70
2022/08/15 08:57:58;;;;;;;2.13;1.87;;;25.00;97.70;;;;;;5004934;28;20442;-71
2022/08/15 09:00:31;;;;;;;2.60;1.83;;;25.30;97.10;;;;;;5014738;28;20407;-70
2022/08/15 09:03:26;;;;;;;2.07;1.60;;;25.70;96.30;;;;;;5014856;28;20464;-71
2022/08/15 09:05:54;;;;;;;2.47;1.80;;;25.80;95.60;;;;;;5014643;28;20415;-71
2022/08/15 09:08:26;;;;;;;1.97;1.87;;;26.00;95.10;;;;;;5014508;28;20423;-71
2022/08/15 09:11:16;;;;;;;1.83;1.70;;;26.20;94.70;;;;;;5014672;28;20465;-70
2022/08/15 09:13:44;;;;;;;2.37;2.17;;;26.00;94.60;;;;;;5013877;28;20439;-70
2022/08/15 09:16:36;;;;;;;1.70;1.60;;;26.00;94.70;;;;;;5014575;28;20407;-70
2022/08/15 09:19:17;;;;;;;2.67;2.10;;;26.30;94.60;;;;;;5014658;28;20410;-71
2022/08/15 09:21:44;;;;;;;2.40;1.90;;;26.80;94.20;;;;;;5014322;28;20440;-70
2022/08/15 09:24:11;;;;;;;2.67;2.00;;;26.90;93.20;;;;;;5014531;28;20850;-71
2022/08/15 09:26:42;;;;;;;3.70;1.80;;;26.40;93.10;;;;;;5014089;28;20413;-71
2022/08/15 09:29:25;;;;;;;3.43;2.07;;;26.80;93.00;;;;;;5013868;28;20782;-71
2022/08/15 09:31:57;;;;;;;2.73;2.20;;;26.60;92.30;;;;;;5014261;28;20421;-71
2022/08/15 09:34:51;;;;;;;2.70;1.87;;;26.50;92.60;;;;;;5014394;28;20457;-71
2022/08/15 09:37:20;;;;;;;1.70;1.47;;;26.80;92.30;;;;;;4978187;28;20428;-71
2022/08/15 09:39:56;;;;;;;2.50;2.30;;;27.00;92.10;;;;;;5014405;28;20399;-70
2022/08/15 09:42:40;;;;;;;2.27;2.07;;;27.20;91.60;;;;;;5014101;28;20963;-71
2022/08/15 09:45:36;;;;;;;2.30;2.10;;;27.00;92.30;;;;;;5014395;28;20756;-71
2022/08/15 09:48:31;;;;;;;1.97;1.83;;;26.60;93.50;;;;;;5014211;28;20883;-70
2022/08/15 09:51:00;;;;;;;2.40;2.20;;;26.70;92.90;;;;;;5014312;28;20384;-71
2022/08/15 09:53:40;;;;;;;1.97;1.83;;;26.50;93.10;;;;;;5013982;28;20835;-71
2022/08/15 09:56:11;;;;;;;1.90;1.80;;;25.90;94.00;;;;;;5018417;28;20442;-71
2022/08/15 09:59:09;;;;;;;2.40;1.97;;;25.60;94.30;;;;;;5013199;28;20807;-71
2022/08/15 10:02:21;;;;;;;2.03;1.83;;;26.00;93.80;;;;;;5012921;28;20470;-71
2022/08/15 10:04:50;;;;;;;3.40;1.80;;;26.50;93.20;;;;;;5013685;28;20398;-72
2022/08/15 10:07:31;;;;;;;2.20;2.00;;;26.80;91.40;;;;;;5013831;28;20411;-71
2022/08/15 10:09:56;;;;;;;4.70;1.90;;;27.10;91.00;;;;;;5013891;28;20757;-71
2022/08/15 10:12:23;;;;;;;4.10;2.47;;;27.20;91.50;;;;;;5013462;28;20435;-71
2022/08/15 10:15:02;;;;;;;2.80;2.30;;;27.30;92.10;;;;;;5013544;28;20631;-71
2022/08/15 10:17:37;;;;;;;3.60;2.40;;;27.10;92.00;;;;;;5013453;28;20379;-72
2022/08/15 10:20:17;;;;;;;3.00;2.70;;;27.00;92.00;;;;;;5012126;28;20420;-70
2022/08/15 10:22:48;;;;;;;3.60;2.20;;;27.20;91.50;;;;;;5014453;28;20781;-71
2022/08/15 10:25:17;;;;;;;3.23;2.20;;;27.40;91.30;;;;;;5013866;28;20411;-70
2022/08/15 10:28:00;;;;;;;3.10;2.30;;;27.70;90.30;;;;;;5013244;28;20486;-69
2022/08/15 10:30:30;;;;;;;3.83;2.47;;;27.90;90.10;;;;;;5013773;28;20505;-68
2022/08/15 10:32:57;;;;;;;2.37;2.10;;;27.70;88.80;;;;;;5012051;28;20999;-69
2022/08/15 10:35:45;;;;;;;7.83;3.07;;;27.80;90.00;;;;;;5013355;28;20804;-71
2022/08/15 10:38:13;;;;;;;2.53;2.30;;;27.70;88.50;;;;;;5013696;28;20403;-69
2022/08/15 10:41:13;;;;;;;2.40;2.17;;;28.00;88.40;;;;;;5013709;28;20410;-71
2022/08/15 10:44:00;;;;;;;3.00;2.43;;;27.80;89.00;;;;;;5013500;28;20399;-71
2022/08/15 10:46:49;;;;;;;4.57;2.67;;;27.70;90.20;;;;;;5013541;28;20907;-72
2022/08/15 10:49:30;;;;;;;3.50;2.53;;;27.70;91.00;;;;;;5013963;28;20379;-71
2022/08/15 10:52:26;;;;;;;2.93;2.73;;;27.60;90.60;;;;;;5013518;28;20777;-70
2022/08/15 10:55:12;;;;;;;3.17;2.70;;;27.30;91.10;;;;;;5013220;28;20435;-72
2022/08/15 10:57:48;;;;;;;2.70;1.97;;;27.40;91.00;;;;;;5012765;28;20403;-71
2022/08/15 11:00:46;;;;;;;2.50;2.30;;;28.60;88.60;;;;;;5013379;28;20413;-71
2022/08/15 11:03:20;;;;;;;2.50;1.80;;;30.90;82.70;;;;;;4995300;28;20461;-72
2022/08/15 11:05:57;;;;;;;2.30;2.10;;;33.00;73.90;;;;;;5013223;28;20387;-71
2022/08/15 11:08:24;;;;;;;3.00;2.70;;;33.90;67.10;;;;;;5013107;28;20414;-71
2022/08/15 11:10:50;;;;;;;3.07;2.77;;;33.60;65.70;;;;;;5013020;28;20410;-71
2022/08/15 11:13:22;;;;;;;3.37;2.50;;;34.00;66.30;;;;;;5012547;28;20442;-69
2022/08/15 11:16:07;;;;;;;2.57;2.00;;;34.50;62.70;;;;;;5013237;28;20386;-70
2022/08/15 11:18:35;;;;;;;2.60;2.07;;;34.90;59.80;;;;;;5013520;28;20379;-72
2022/08/15 11:21:16;;;;;;;2.43;2.07;;;33.30;61.10;;;;;;5012796;28;20526;-70
2022/08/15 11:23:42;;;;;;;2.40;1.83;;;31.40;65.60;;;;;;5012963;28;20387;-71
2022/08/15 11:26:10;;;;;;;2.30;2.10;;;30.40;68.60;;;;;;5013083;28;20407;-69
2022/08/15 11:28:39;;;;;;;2.70;2.10;;;29.80;69.90;;;;;;5013278;28;20214;-71
2022/08/15 11:31:18;;;;;;;3.03;1.97;;;31.00;67.70;;;;;;5016256;28;20399;-70
2022/08/15 11:33:48;;;;;;;2.20;2.00;;;32.30;64.70;;;;;;5016471;28;20437;-71
2022/08/15 11:36:24;;;;;;;3.00;1.97;;;33.10;62.00;;;;;;5016471;28;20408;-72
2022/08/15 11:39:01;;;;;;;2.17;1.97;;;33.20;61.70;;;;;;5016361;28;20407;-72
2022/08/15 11:41:31;;;;;;;2.13;1.97;;;33.90;60.30;;;;;;5016249;28;20469;-71
2022/08/15 11:44:00;;;;;;;2.10;1.90;;;34.70;57.00;;;;;;5015927;28;20442;-71
2022/08/15 11:46:27;;;;;;;2.23;1.83;;;33.80;58.30;;;;;;5016368;28;20403;-71
2022/08/15 11:49:05;;;;;;;2.80;2.13;;;32.80;59.40;;;;;;5016075;28;20407;-71
2022/08/15 11:51:42;;;;;;;2.30;1.73;;;32.00;62.00;;;;;;5016228;28;20422;-71
2022/08/15 11:54:13;;;;;;;2.10;2.00;;;31.80;62.10;;;;;;5016427;28;20824;-71
2022/08/15 11:57:20;;;;;;;2.80;1.80;;;32.30;60.90;;;;;;5016064;28;20399;-71
2022/08/15 12:00:09;;;;;;;3.10;2.27;;;32.10;60.80;;;;;;4974905;28;20917;-70
2022/08/15 12:02:34;;;;;;;2.73;2.30;;;31.20;64.00;;;;;;5015243;28;20454;-71
2022/08/15 12:05:16;;;;;;;1.90;1.80;;;30.50;64.40;;;;;;5015867;28;20399;-71
2022/08/15 12:07:47;;;;;;;3.10;2.27;;;31.30;63.70;;;;;;5015056;28;20719;-71
2022/08/15 12:10:35;;;;;;;2.00;1.90;;;33.10;59.90;;;;;;5015944;28;20419;-71
2022/08/15 12:13:02;;;;;;;3.00;2.20;;;33.20;59.20;;;;;;5015236;28;20537;-71
2022/08/15 12:15:33;;;;;;;3.00;1.90;;;34.30;57.20;;;;;;5015541;28;20407;-71
2022/08/15 12:18:06;;;;;;;2.17;1.97;;;35.30;55.60;;;;;;5015658;28;20402;-71
2022/08/15 12:20:46;;;;;;;2.13;1.73;;;35.30;55.10;;;;;;5015558;28;20415;-71
2022/08/15 12:23:38;;;;;;;2.83;2.47;;;35.80;52.70;;;;;;5015736;28;20506;-71
2022/08/15 12:26:06;;;;;;;2.77;2.37;;;35.70;52.30;;;;;;5014143;28;20468;-71
2022/08/15 12:28:34;;;;;;;2.53;2.27;;;35.00;52.80;;;;;;5014919;28;20931;-71
2022/08/15 12:31:44;;;;;;;2.50;2.30;;;34.70;53.20;;;;;;5014130;28;20506;-70
2022/08/15 12:34:17;;;;;;;2.50;1.93;;;35.80;51.10;;;;;;5006359;28;20459;-71
2022/08/15 12:36:43;;;;;;;2.53;2.33;;;37.40;48.70;;;;;;5015073;28;20734;-71
2022/08/15 12:39:11;;;;;;;2.10;1.90;;;36.90;48.50;;;;;;5014611;28;20482;-71
2022/08/15 12:41:42;;;;;;;2.30;2.10;;;37.80;46.50;;;;;;5015270;28;20426;-68
2022/08/15 12:44:20;;;;;;;2.40;2.17;;;38.30;46.10;;;;;;5015296;28;20900;-69
2022/08/15 12:46:46;;;;;;;5.87;2.07;;;37.70;46.30;;;;;;5015095;28;20386;-69
2022/08/15 12:49:11;;;;;;;1.93;1.73;;;37.70;46.30;;;;;;5020569;28;20947;-70
2022/08/15 12:51:37;;;;;;;2.27;2.07;;;38.60;45.20;;;;;;5034585;28;20664;-70
2022/08/15 12:54:03;;;;;;;2.17;1.97;;;37.00;47.70;;;;;;5035194;28;20183;-69
2022/08/15 12:56:29;;;;;;;2.90;2.37;;;33.70;52.50;;;;;;5035297;28;20564;-70
2022/08/15 12:58:54;;;;;;;3.30;2.40;;;32.30;55.70;;;;;;5019727;28;20176;-73
2022/08/15 13:01:20;;;;;;;2.93;2.30;;;31.60;57.80;;;;;;5014513;28;20172;-70
2022/08/15 13:03:46;;;;;;;2.47;2.20;;;31.40;58.50;;;;;;5014936;28;20298;-70
2022/08/15 13:06:22;;;;;;;3.27;2.50;;;31.10;59.50;;;;;;5014723;28;20169;-70
2022/08/15 13:08:48;;;;;;;4.07;2.70;;;30.60;60.30;;;;;;5015030;28;20235;-70
2022/08/15 13:11:13;;;;;;;3.23;2.43;;;30.40;60.80;;;;;;5014590;28;20505;-71
2022/08/15 13:13:39;;;;;;;3.17;2.87;;;30.20;60.50;;;;;;5014363;28;20708;-71
2022/08/15 13:16:07;;;;;;;3.97;2.60;;;29.90;61.50;;;;;;5015141;28;20564;-70
2022/08/15 13:18:34;;;;;;;3.50;2.40;;;29.80;61.50;;;;;;5014396;28;20168;-70
2022/08/15 13:23:45;;;;;;;5.10;3.13;;;29.90;62.00;;;;;;5015283;28;20935;-70
2022/08/15 13:26:15;;;;;;;2.57;2.37;;;30.40;60.90;;;;;;5015052;28;20745;-70
2022/08/15 13:28:43;;;;;;;3.60;3.00;;;30.40;60.50;;;;;;5014539;28;20417;-70
2022/08/15 13:31:12;;;;;;;3.17;2.87;;;30.40;61.20;;;;;;5015311;28;20407;-71